sensor_id;sensor_type;location;lat;lon;timestamp;P1;durP1;ratioP1;P2;durP2;ratioP2
22610;SDS011;11472;45.494;12.142;2023-02-15T00:00:03;136.50;;;85.20;;
22610;SDS011;11472;45.494;12.142;2023-02-15T00:01:09;137.50;;;84.60;;
22610;SDS011;11472;45.494;12.142;2023-02-15T00:02:01;137.50;;;84.60;;
22610;SDS011;11472;45.494;12.142;2023-02-15T00:03:00;137.50;;;84.60;;
22610;SDS011;11472;45.494;12.142;2023-02-15T00:04:00;137.50;;;84.60;;
22610;SDS011;11472;45.494;12.142;2023-02-15T00:05:00;137.50;;;84.60;;
22610;SDS011;11472;45.494;12.142;2023-02-15T00:06:01;137.50;;;84.60;;
22610;SDS011;11472;45.494;12.142;2023-02-15T00:07:00;137.50;;;84.60;;
22610;SDS011;11472;45.494;12.142;2023-02-15T00:08:00;137.50;;;84.60;;
22610;SDS011;11472;45.494;12.142;2023-02-15T00:09:01;137.50;;;84.60;;
22610;SDS011;11472;45.494;12.142;2023-02-15T00:10:00;137.50;;;84.60;;
22610;SDS011;11472;45.494;12.142;2023-02-15T00:12:00;137.50;;;84.60;;
22610;SDS011;11472;45.494;12.142;2023-02-15T00:13:00;137.50;;;84.60;;
22610;SDS011;11472;45.494;12.142;2023-02-15T00:14:00;137.50;;;84.60;;
22610;SDS011;11472;45.494;12.142;2023-02-15T00:15:00;137.50;;;84.60;;
22610;SDS011;11472;45.494;12.142;2023-02-15T00:16:03;135.50;;;83.50;;
22610;SDS011;11472;45.494;12.142;2023-02-15T00:17:00;135.50;;;83.50;;
22610;SDS011;11472;45.494;12.142;2023-02-15T00:18:00;135.50;;;83.50;;
22610;SDS011;11472;45.494;12.142;2023-02-15T00:19:02;135.50;;;83.50;;
22610;SDS011;11472;45.494;12.142;2023-02-15T00:20:00;135.50;;;83.50;;
22610;SDS011;11472;45.494;12.142;2023-02-15T00:21:09;135.50;;;83.50;;
22610;SDS011;11472;45.494;12.142;2023-02-15T00:22:00;135.50;;;83.50;;
22610;SDS011;11472;45.494;12.142;2023-02-15T00:23:00;135.50;;;83.50;;
22610;SDS011;11472;45.494;12.142;2023-02-15T00:24:01;135.50;;;83.50;;
22610;SDS011;11472;45.494;12.142;2023-02-15T00:25:00;135.50;;;83.50;;
22610;SDS011;11472;45.494;12.142;2023-02-15T00:26:06;135.50;;;83.50;;
22610;SDS011;11472;45.494;12.142;2023-02-15T00:27:00;135.50;;;83.50;;
22610;SDS011;11472;45.494;12.142;2023-02-15T00:28:00;135.50;;;83.50;;
22610;SDS011;11472;45.494;12.142;2023-02-15T00:29:00;135.50;;;83.50;;
22610;SDS011;11472;45.494;12.142;2023-02-15T00:30:00;135.50;;;83.50;;
22610;SDS011;11472;45.494;12.142;2023-02-15T00:31:06;134.50;;;83.70;;
22610;SDS011;11472;45.494;12.142;2023-02-15T00:32:00;134.50;;;83.70;;
22610;SDS011;11472;45.494;12.142;2023-02-15T00:33:00;134.50;;;83.70;;
22610;SDS011;11472;45.494;12.142;2023-02-15T00:34:03;134.50;;;83.70;;
22610;SDS011;11472;45.494;12.142;2023-02-15T00:35:00;134.50;;;83.70;;
22610;SDS011;11472;45.494;12.142;2023-02-15T00:36:01;134.50;;;83.70;;
22610;SDS011;11472;45.494;12.142;2023-02-15T00:37:00;134.50;;;83.70;;
22610;SDS011;11472;45.494;12.142;2023-02-15T00:38:00;134.50;;;83.70;;
22610;SDS011;11472;45.494;12.142;2023-02-15T00:39:00;134.50;;;83.70;;
22610;SDS011;11472;45.494;12.142;2023-02-15T00:40:00;134.50;;;83.70;;
22610;SDS011;11472;45.494;12.142;2023-02-15T00:41:03;134.50;;;83.70;;
22610;SDS011;11472;45.494;12.142;2023-02-15T00:42:00;134.50;;;83.70;;
22610;SDS011;11472;45.494;12.142;2023-02-15T00:43:00;134.50;;;83.70;;
22610;SDS011;11472;45.494;12.142;2023-02-15T00:44:00;134.50;;;83.70;;
22610;SDS011;11472;45.494;12.142;2023-02-15T00:45:00;134.50;;;83.70;;
22610;SDS011;11472;45.494;12.142;2023-02-15T00:46:01;145.90;;;89.50;;
22610;SDS011;11472;45.494;12.142;2023-02-15T00:47:00;145.90;;;89.50;;
22610;SDS011;11472;45.494;12.142;2023-02-15T00:48:00;145.90;;;89.50;;
22610;SDS011;11472;45.494;12.142;2023-02-15T00:49:00;145.90;;;89.50;;
22610;SDS011;11472;45.494;12.142;2023-02-15T00:50:00;145.90;;;89.50;;
22610;SDS011;11472;45.494;12.142;2023-02-15T00:51:01;145.90;;;89.50;;
22610;SDS011;11472;45.494;12.142;2023-02-15T00:52:00;145.90;;;89.50;;
22610;SDS011;11472;45.494;12.142;2023-02-15T00:53:00;145.90;;;89.50;;
22610;SDS011;11472;45.494;12.142;2023-02-15T00:54:00;145.90;;;89.50;;
22610;SDS011;11472;45.494;12.142;2023-02-15T00:55:00;145.90;;;89.50;;
22610;SDS011;11472;45.494;12.142;2023-02-15T00:56:01;145.90;;;89.50;;
22610;SDS011;11472;45.494;12.142;2023-02-15T00:57:01;145.90;;;89.50;;
22610;SDS011;11472;45.494;12.142;2023-02-15T00:58:00;145.90;;;89.50;;
22610;SDS011;11472;45.494;12.142;2023-02-15T00:59:00;145.90;;;89.50;;
22610;SDS011;11472;45.494;12.142;2023-02-15T01:00:00;145.90;;;89.50;;
22610;SDS011;11472;45.494;12.142;2023-02-15T01:01:06;138.80;;;88.50;;
22610;SDS011;11472;45.494;12.142;2023-02-15T01:02:00;138.80;;;88.50;;
22610;SDS011;11472;45.494;12.142;2023-02-15T01:03:00;138.80;;;88.50;;
22610;SDS011;11472;45.494;12.142;2023-02-15T01:04:01;138.80;;;88.50;;
22610;SDS011;11472;45.494;12.142;2023-02-15T01:05:00;138.80;;;88.50;;
22610;SDS011;11472;45.494;12.142;2023-02-15T01:06:01;138.80;;;88.50;;
22610;SDS011;11472;45.494;12.142;2023-02-15T01:07:01;138.80;;;88.50;;
22610;SDS011;11472;45.494;12.142;2023-02-15T01:08:01;138.80;;;88.50;;
22610;SDS011;11472;45.494;12.142;2023-02-15T01:09:00;138.80;;;88.50;;
22610;SDS011;11472;45.494;12.142;2023-02-15T01:10:00;138.80;;;88.50;;
22610;SDS011;11472;45.494;12.142;2023-02-15T01:11:06;138.80;;;88.50;;
22610;SDS011;11472;45.494;12.142;2023-02-15T01:12:00;138.80;;;88.50;;
22610;SDS011;11472;45.494;12.142;2023-02-15T01:13:00;138.80;;;88.50;;
22610;SDS011;11472;45.494;12.142;2023-02-15T01:14:00;138.80;;;88.50;;
22610;SDS011;11472;45.494;12.142;2023-02-15T01:15:00;138.80;;;88.50;;
22610;SDS011;11472;45.494;12.142;2023-02-15T01:16:01;140.10;;;89.20;;
22610;SDS011;11472;45.494;12.142;2023-02-15T01:17:00;140.10;;;89.20;;
22610;SDS011;11472;45.494;12.142;2023-02-15T01:18:00;140.10;;;89.20;;
22610;SDS011;11472;45.494;12.142;2023-02-15T01:19:02;140.10;;;89.20;;
22610;SDS011;11472;45.494;12.142;2023-02-15T01:20:01;140.10;;;89.20;;
22610;SDS011;11472;45.494;12.142;2023-02-15T01:21:08;140.10;;;89.20;;
22610;SDS011;11472;45.494;12.142;2023-02-15T01:22:00;140.10;;;89.20;;
22610;SDS011;11472;45.494;12.142;2023-02-15T01:23:00;140.10;;;89.20;;
22610;SDS011;11472;45.494;12.142;2023-02-15T01:24:01;140.10;;;89.20;;
22610;SDS011;11472;45.494;12.142;2023-02-15T01:25:00;140.10;;;89.20;;
22610;SDS011;11472;45.494;12.142;2023-02-15T01:26:03;140.10;;;89.20;;
22610;SDS011;11472;45.494;12.142;2023-02-15T01:27:00;140.10;;;89.20;;
22610;SDS011;11472;45.494;12.142;2023-02-15T01:28:01;140.10;;;89.20;;
22610;SDS011;11472;45.494;12.142;2023-02-15T01:29:00;140.10;;;89.20;;
22610;SDS011;11472;45.494;12.142;2023-02-15T01:30:00;140.10;;;89.20;;
22610;SDS011;11472;45.494;12.142;2023-02-15T01:31:06;142.40;;;89.90;;
22610;SDS011;11472;45.494;12.142;2023-02-15T01:32:00;142.40;;;89.90;;
22610;SDS011;11472;45.494;12.142;2023-02-15T01:33:01;142.40;;;89.90;;
22610;SDS011;11472;45.494;12.142;2023-02-15T01:34:00;142.40;;;89.90;;
22610;SDS011;11472;45.494;12.142;2023-02-15T01:35:01;142.40;;;89.90;;
22610;SDS011;11472;45.494;12.142;2023-02-15T01:36:01;142.40;;;89.90;;
22610;SDS011;11472;45.494;12.142;2023-02-15T01:37:00;142.40;;;89.90;;
22610;SDS011;11472;45.494;12.142;2023-02-15T01:38:00;142.40;;;89.90;;
22610;SDS011;11472;45.494;12.142;2023-02-15T01:39:01;142.40;;;89.90;;
22610;SDS011;11472;45.494;12.142;2023-02-15T01:40:02;142.40;;;89.90;;
22610;SDS011;11472;45.494;12.142;2023-02-15T01:41:10;142.40;;;89.90;;
22610;SDS011;11472;45.494;12.142;2023-02-15T01:42:00;142.40;;;89.90;;
22610;SDS011;11472;45.494;12.142;2023-02-15T01:43:00;142.40;;;89.90;;
22610;SDS011;11472;45.494;12.142;2023-02-15T01:44:02;142.40;;;89.90;;
22610;SDS011;11472;45.494;12.142;2023-02-15T01:45:04;142.40;;;89.90;;
22610;SDS011;11472;45.494;12.142;2023-02-15T01:46:01;136.80;;;85.70;;
22610;SDS011;11472;45.494;12.142;2023-02-15T01:47:00;136.80;;;85.70;;
22610;SDS011;11472;45.494;12.142;2023-02-15T01:48:05;136.80;;;85.70;;
22610;SDS011;11472;45.494;12.142;2023-02-15T01:49:04;136.80;;;85.70;;
22610;SDS011;11472;45.494;12.142;2023-02-15T01:50:08;136.80;;;85.70;;
22610;SDS011;11472;45.494;12.142;2023-02-15T01:51:01;136.80;;;85.70;;
22610;SDS011;11472;45.494;12.142;2023-02-15T01:52:00;136.80;;;85.70;;
22610;SDS011;11472;45.494;12.142;2023-02-15T01:53:03;136.80;;;85.70;;
22610;SDS011;11472;45.494;12.142;2023-02-15T01:54:06;136.80;;;85.70;;
22610;SDS011;11472;45.494;12.142;2023-02-15T01:55:02;136.80;;;85.70;;
22610;SDS011;11472;45.494;12.142;2023-02-15T01:57:03;136.80;;;85.70;;
22610;SDS011;11472;45.494;12.142;2023-02-15T01:58:00;136.80;;;85.70;;
22610;SDS011;11472;45.494;12.142;2023-02-15T01:59:11;136.80;;;85.70;;
22610;SDS011;11472;45.494;12.142;2023-02-15T02:00:01;136.80;;;85.70;;
22610;SDS011;11472;45.494;12.142;2023-02-15T02:01:04;134.40;;;84.30;;
22610;SDS011;11472;45.494;12.142;2023-02-15T02:02:00;134.40;;;84.30;;
22610;SDS011;11472;45.494;12.142;2023-02-15T02:03:01;134.40;;;84.30;;
22610;SDS011;11472;45.494;12.142;2023-02-15T02:05:06;134.40;;;84.30;;
22610;SDS011;11472;45.494;12.142;2023-02-15T02:06:01;134.40;;;84.30;;
22610;SDS011;11472;45.494;12.142;2023-02-15T02:07:00;134.40;;;84.30;;
22610;SDS011;11472;45.494;12.142;2023-02-15T02:08:01;134.40;;;84.30;;
22610;SDS011;11472;45.494;12.142;2023-02-15T02:09:01;134.40;;;84.30;;
22610;SDS011;11472;45.494;12.142;2023-02-15T02:10:02;134.40;;;84.30;;
22610;SDS011;11472;45.494;12.142;2023-02-15T02:11:00;134.40;;;84.30;;
22610;SDS011;11472;45.494;12.142;2023-02-15T02:12:00;134.40;;;84.30;;
22610;SDS011;11472;45.494;12.142;2023-02-15T02:13:03;134.40;;;84.30;;
22610;SDS011;11472;45.494;12.142;2023-02-15T02:14:00;134.40;;;84.30;;
22610;SDS011;11472;45.494;12.142;2023-02-15T02:15:00;134.40;;;84.30;;
22610;SDS011;11472;45.494;12.142;2023-02-15T02:16:05;144.80;;;88.10;;
22610;SDS011;11472;45.494;12.142;2023-02-15T02:17:06;144.80;;;88.10;;
22610;SDS011;11472;45.494;12.142;2023-02-15T02:22:14;144.80;;;88.10;;
22610;SDS011;11472;45.494;12.142;2023-02-15T02:23:12;144.80;;;88.10;;
22610;SDS011;11472;45.494;12.142;2023-02-15T02:24:08;144.80;;;88.10;;
22610;SDS011;11472;45.494;12.142;2023-02-15T02:32:10;133.80;;;84.00;;
22610;SDS011;11472;45.494;12.142;2023-02-15T02:33:11;133.80;;;84.00;;
22610;SDS011;11472;45.494;12.142;2023-02-15T02:34:01;133.80;;;84.00;;
22610;SDS011;11472;45.494;12.142;2023-02-15T02:42:13;133.80;;;84.00;;
22610;SDS011;11472;45.494;12.142;2023-02-15T02:43:05;133.80;;;84.00;;
22610;SDS011;11472;45.494;12.142;2023-02-15T02:46:13;125.80;;;82.20;;
22610;SDS011;11472;45.494;12.142;2023-02-15T02:48:08;125.80;;;82.20;;
22610;SDS011;11472;45.494;12.142;2023-02-15T02:49:01;125.80;;;82.20;;
22610;SDS011;11472;45.494;12.142;2023-02-15T02:50:04;125.80;;;82.20;;
22610;SDS011;11472;45.494;12.142;2023-02-15T02:51:00;125.80;;;82.20;;
22610;SDS011;11472;45.494;12.142;2023-02-15T02:52:02;125.80;;;82.20;;
22610;SDS011;11472;45.494;12.142;2023-02-15T02:53:00;125.80;;;82.20;;
22610;SDS011;11472;45.494;12.142;2023-02-15T02:54:03;125.80;;;82.20;;
22610;SDS011;11472;45.494;12.142;2023-02-15T02:55:01;125.80;;;82.20;;
22610;SDS011;11472;45.494;12.142;2023-02-15T02:56:06;125.80;;;82.20;;
22610;SDS011;11472;45.494;12.142;2023-02-15T02:57:03;125.80;;;82.20;;
22610;SDS011;11472;45.494;12.142;2023-02-15T02:59:12;125.80;;;82.20;;
22610;SDS011;11472;45.494;12.142;2023-02-15T03:00:01;125.80;;;82.20;;
22610;SDS011;11472;45.494;12.142;2023-02-15T03:01:03;131.70;;;79.50;;
22610;SDS011;11472;45.494;12.142;2023-02-15T03:02:07;131.70;;;79.50;;
22610;SDS011;11472;45.494;12.142;2023-02-15T03:03:06;131.70;;;79.50;;
22610;SDS011;11472;45.494;12.142;2023-02-15T03:04:05;131.70;;;79.50;;
22610;SDS011;11472;45.494;12.142;2023-02-15T03:05:04;131.70;;;79.50;;
22610;SDS011;11472;45.494;12.142;2023-02-15T03:06:04;131.70;;;79.50;;
22610;SDS011;11472;45.494;12.142;2023-02-15T03:07:01;131.70;;;79.50;;
22610;SDS011;11472;45.494;12.142;2023-02-15T03:08:05;131.70;;;79.50;;
22610;SDS011;11472;45.494;12.142;2023-02-15T03:09:06;131.70;;;79.50;;
22610;SDS011;11472;45.494;12.142;2023-02-15T03:10:02;131.70;;;79.50;;
22610;SDS011;11472;45.494;12.142;2023-02-15T03:11:01;131.70;;;79.50;;
22610;SDS011;11472;45.494;12.142;2023-02-15T03:12:01;131.70;;;79.50;;
22610;SDS011;11472;45.494;12.142;2023-02-15T03:13:00;131.70;;;79.50;;
22610;SDS011;11472;45.494;12.142;2023-02-15T03:14:00;131.70;;;79.50;;
22610;SDS011;11472;45.494;12.142;2023-02-15T03:15:04;131.70;;;79.50;;
22610;SDS011;11472;45.494;12.142;2023-02-15T03:16:11;123.00;;;78.60;;
22610;SDS011;11472;45.494;12.142;2023-02-15T03:17:00;123.00;;;78.60;;
22610;SDS011;11472;45.494;12.142;2023-02-15T03:18:02;123.00;;;78.60;;
22610;SDS011;11472;45.494;12.142;2023-02-15T03:19:05;123.00;;;78.60;;
22610;SDS011;11472;45.494;12.142;2023-02-15T03:20:08;123.00;;;78.60;;
22610;SDS011;11472;45.494;12.142;2023-02-15T03:21:01;123.00;;;78.60;;
22610;SDS011;11472;45.494;12.142;2023-02-15T03:22:05;123.00;;;78.60;;
22610;SDS011;11472;45.494;12.142;2023-02-15T03:23:06;123.00;;;78.60;;
22610;SDS011;11472;45.494;12.142;2023-02-15T03:24:06;123.00;;;78.60;;
22610;SDS011;11472;45.494;12.142;2023-02-15T03:26:03;123.00;;;78.60;;
22610;SDS011;11472;45.494;12.142;2023-02-15T03:27:00;123.00;;;78.60;;
22610;SDS011;11472;45.494;12.142;2023-02-15T03:28:06;123.00;;;78.60;;
22610;SDS011;11472;45.494;12.142;2023-02-15T03:29:00;123.00;;;78.60;;
22610;SDS011;11472;45.494;12.142;2023-02-15T03:30:01;123.00;;;78.60;;
22610;SDS011;11472;45.494;12.142;2023-02-15T03:31:02;126.70;;;77.40;;
22610;SDS011;11472;45.494;12.142;2023-02-15T03:32:03;126.70;;;77.40;;
22610;SDS011;11472;45.494;12.142;2023-02-15T03:33:00;126.70;;;77.40;;
22610;SDS011;11472;45.494;12.142;2023-02-15T03:34:03;126.70;;;77.40;;
22610;SDS011;11472;45.494;12.142;2023-02-15T03:35:01;126.70;;;77.40;;
22610;SDS011;11472;45.494;12.142;2023-02-15T03:37:07;126.70;;;77.40;;
22610;SDS011;11472;45.494;12.142;2023-02-15T03:38:01;126.70;;;77.40;;
22610;SDS011;11472;45.494;12.142;2023-02-15T03:41:10;126.70;;;77.40;;
22610;SDS011;11472;45.494;12.142;2023-02-15T03:42:14;126.70;;;77.40;;
22610;SDS011;11472;45.494;12.142;2023-02-15T03:43:03;126.70;;;77.40;;
22610;SDS011;11472;45.494;12.142;2023-02-15T03:44:06;126.70;;;77.40;;
22610;SDS011;11472;45.494;12.142;2023-02-15T03:45:09;126.70;;;77.40;;
22610;SDS011;11472;45.494;12.142;2023-02-15T03:46:11;124.90;;;75.20;;
22610;SDS011;11472;45.494;12.142;2023-02-15T03:48:00;124.90;;;75.20;;
22610;SDS011;11472;45.494;12.142;2023-02-15T03:49:04;124.90;;;75.20;;
22610;SDS011;11472;45.494;12.142;2023-02-15T03:51:14;124.90;;;75.20;;
22610;SDS011;11472;45.494;12.142;2023-02-15T03:52:00;124.90;;;75.20;;
22610;SDS011;11472;45.494;12.142;2023-02-15T03:53:01;124.90;;;75.20;;
22610;SDS011;11472;45.494;12.142;2023-02-15T03:54:10;124.90;;;75.20;;
22610;SDS011;11472;45.494;12.142;2023-02-15T03:55:00;124.90;;;75.20;;
22610;SDS011;11472;45.494;12.142;2023-02-15T03:56:01;124.90;;;75.20;;
22610;SDS011;11472;45.494;12.142;2023-02-15T03:57:13;124.90;;;75.20;;
22610;SDS011;11472;45.494;12.142;2023-02-15T03:58:10;124.90;;;75.20;;
22610;SDS011;11472;45.494;12.142;2023-02-15T03:59:10;124.90;;;75.20;;
22610;SDS011;11472;45.494;12.142;2023-02-15T04:00:13;124.90;;;75.20;;
22610;SDS011;11472;45.494;12.142;2023-02-15T04:01:19;125.70;;;72.20;;
22610;SDS011;11472;45.494;12.142;2023-02-15T04:04:05;125.70;;;72.20;;
22610;SDS011;11472;45.494;12.142;2023-02-15T04:05:00;125.70;;;72.20;;
22610;SDS011;11472;45.494;12.142;2023-02-15T04:06:02;125.70;;;72.20;;
22610;SDS011;11472;45.494;12.142;2023-02-15T04:07:01;125.70;;;72.20;;
22610;SDS011;11472;45.494;12.142;2023-02-15T04:08:01;125.70;;;72.20;;
22610;SDS011;11472;45.494;12.142;2023-02-15T04:09:11;125.70;;;72.20;;
22610;SDS011;11472;45.494;12.142;2023-02-15T04:10:10;125.70;;;72.20;;
22610;SDS011;11472;45.494;12.142;2023-02-15T04:11:00;125.70;;;72.20;;
22610;SDS011;11472;45.494;12.142;2023-02-15T04:12:00;125.70;;;72.20;;
22610;SDS011;11472;45.494;12.142;2023-02-15T04:13:00;125.70;;;72.20;;
22610;SDS011;11472;45.494;12.142;2023-02-15T04:14:10;125.70;;;72.20;;
22610;SDS011;11472;45.494;12.142;2023-02-15T04:15:12;125.70;;;72.20;;
22610;SDS011;11472;45.494;12.142;2023-02-15T04:16:04;122.60;;;73.10;;
22610;SDS011;11472;45.494;12.142;2023-02-15T04:17:00;122.60;;;73.10;;
22610;SDS011;11472;45.494;12.142;2023-02-15T04:18:03;122.60;;;73.10;;
22610;SDS011;11472;45.494;12.142;2023-02-15T04:19:10;122.60;;;73.10;;
22610;SDS011;11472;45.494;12.142;2023-02-15T04:20:10;122.60;;;73.10;;
22610;SDS011;11472;45.494;12.142;2023-02-15T04:21:10;122.60;;;73.10;;
22610;SDS011;11472;45.494;12.142;2023-02-15T04:22:10;122.60;;;73.10;;
22610;SDS011;11472;45.494;12.142;2023-02-15T04:23:10;122.60;;;73.10;;
22610;SDS011;11472;45.494;12.142;2023-02-15T04:24:10;122.60;;;73.10;;
22610;SDS011;11472;45.494;12.142;2023-02-15T04:25:10;122.60;;;73.10;;
22610;SDS011;11472;45.494;12.142;2023-02-15T04:26:03;122.60;;;73.10;;
22610;SDS011;11472;45.494;12.142;2023-02-15T04:27:01;122.60;;;73.10;;
22610;SDS011;11472;45.494;12.142;2023-02-15T04:28:00;122.60;;;73.10;;
22610;SDS011;11472;45.494;12.142;2023-02-15T04:29:00;122.60;;;73.10;;
22610;SDS011;11472;45.494;12.142;2023-02-15T04:30:00;122.60;;;73.10;;
22610;SDS011;11472;45.494;12.142;2023-02-15T04:31:00;119.60;;;71.10;;
22610;SDS011;11472;45.494;12.142;2023-02-15T04:32:01;119.60;;;71.10;;
22610;SDS011;11472;45.494;12.142;2023-02-15T04:33:00;119.60;;;71.10;;
22610;SDS011;11472;45.494;12.142;2023-02-15T04:34:00;119.60;;;71.10;;
22610;SDS011;11472;45.494;12.142;2023-02-15T04:35:00;119.60;;;71.10;;
22610;SDS011;11472;45.494;12.142;2023-02-15T04:36:02;119.60;;;71.10;;
22610;SDS011;11472;45.494;12.142;2023-02-15T04:37:00;119.60;;;71.10;;
22610;SDS011;11472;45.494;12.142;2023-02-15T04:38:00;119.60;;;71.10;;
22610;SDS011;11472;45.494;12.142;2023-02-15T04:39:00;119.60;;;71.10;;
22610;SDS011;11472;45.494;12.142;2023-02-15T04:40:01;119.60;;;71.10;;
22610;SDS011;11472;45.494;12.142;2023-02-15T04:41:00;119.60;;;71.10;;
22610;SDS011;11472;45.494;12.142;2023-02-15T04:42:00;119.60;;;71.10;;
22610;SDS011;11472;45.494;12.142;2023-02-15T04:43:00;119.60;;;71.10;;
22610;SDS011;11472;45.494;12.142;2023-02-15T04:44:00;119.60;;;71.10;;
22610;SDS011;11472;45.494;12.142;2023-02-15T04:45:00;119.60;;;71.10;;
22610;SDS011;11472;45.494;12.142;2023-02-15T04:46:01;118.00;;;70.90;;
22610;SDS011;11472;45.494;12.142;2023-02-15T04:47:00;118.00;;;70.90;;
22610;SDS011;11472;45.494;12.142;2023-02-15T04:48:00;118.00;;;70.90;;
22610;SDS011;11472;45.494;12.142;2023-02-15T04:49:00;118.00;;;70.90;;
22610;SDS011;11472;45.494;12.142;2023-02-15T04:50:00;118.00;;;70.90;;
22610;SDS011;11472;45.494;12.142;2023-02-15T04:51:06;118.00;;;70.90;;
22610;SDS011;11472;45.494;12.142;2023-02-15T04:52:00;118.00;;;70.90;;
22610;SDS011;11472;45.494;12.142;2023-02-15T04:53:00;118.00;;;70.90;;
22610;SDS011;11472;45.494;12.142;2023-02-15T04:54:00;118.00;;;70.90;;
22610;SDS011;11472;45.494;12.142;2023-02-15T04:55:00;118.00;;;70.90;;
22610;SDS011;11472;45.494;12.142;2023-02-15T04:56:01;118.00;;;70.90;;
22610;SDS011;11472;45.494;12.142;2023-02-15T04:57:00;118.00;;;70.90;;
22610;SDS011;11472;45.494;12.142;2023-02-15T04:58:00;118.00;;;70.90;;
22610;SDS011;11472;45.494;12.142;2023-02-15T04:59:00;118.00;;;70.90;;
22610;SDS011;11472;45.494;12.142;2023-02-15T05:00:00;118.00;;;70.90;;
22610;SDS011;11472;45.494;12.142;2023-02-15T05:01:01;111.70;;;70.40;;
22610;SDS011;11472;45.494;12.142;2023-02-15T05:02:00;111.70;;;70.40;;
22610;SDS011;11472;45.494;12.142;2023-02-15T05:03:00;111.70;;;70.40;;
22610;SDS011;11472;45.494;12.142;2023-02-15T05:04:00;111.70;;;70.40;;
22610;SDS011;11472;45.494;12.142;2023-02-15T05:05:00;111.70;;;70.40;;
22610;SDS011;11472;45.494;12.142;2023-02-15T05:06:01;111.70;;;70.40;;
22610;SDS011;11472;45.494;12.142;2023-02-15T05:07:00;111.70;;;70.40;;
22610;SDS011;11472;45.494;12.142;2023-02-15T05:08:00;111.70;;;70.40;;
22610;SDS011;11472;45.494;12.142;2023-02-15T05:09:00;111.70;;;70.40;;
22610;SDS011;11472;45.494;12.142;2023-02-15T05:10:00;111.70;;;70.40;;
22610;SDS011;11472;45.494;12.142;2023-02-15T05:11:00;111.70;;;70.40;;
22610;SDS011;11472;45.494;12.142;2023-02-15T05:12:00;111.70;;;70.40;;
22610;SDS011;11472;45.494;12.142;2023-02-15T05:13:00;111.70;;;70.40;;
22610;SDS011;11472;45.494;12.142;2023-02-15T05:14:00;111.70;;;70.40;;
22610;SDS011;11472;45.494;12.142;2023-02-15T05:15:00;111.70;;;70.40;;
22610;SDS011;11472;45.494;12.142;2023-02-15T05:16:01;117.00;;;72.70;;
22610;SDS011;11472;45.494;12.142;2023-02-15T05:17:01;117.00;;;72.70;;
22610;SDS011;11472;45.494;12.142;2023-02-15T05:18:01;117.00;;;72.70;;
22610;SDS011;11472;45.494;12.142;2023-02-15T05:19:00;117.00;;;72.70;;
22610;SDS011;11472;45.494;12.142;2023-02-15T05:20:00;117.00;;;72.70;;
22610;SDS011;11472;45.494;12.142;2023-02-15T05:21:00;117.00;;;72.70;;
22610;SDS011;11472;45.494;12.142;2023-02-15T05:22:00;117.00;;;72.70;;
22610;SDS011;11472;45.494;12.142;2023-02-15T05:23:00;117.00;;;72.70;;
22610;SDS011;11472;45.494;12.142;2023-02-15T05:24:00;117.00;;;72.70;;
22610;SDS011;11472;45.494;12.142;2023-02-15T05:25:10;117.00;;;72.70;;
22610;SDS011;11472;45.494;12.142;2023-02-15T05:26:11;117.00;;;72.70;;
22610;SDS011;11472;45.494;12.142;2023-02-15T05:27:10;117.00;;;72.70;;
22610;SDS011;11472;45.494;12.142;2023-02-15T05:28:10;117.00;;;72.70;;
22610;SDS011;11472;45.494;12.142;2023-02-15T05:29:02;117.00;;;72.70;;
22610;SDS011;11472;45.494;12.142;2023-02-15T05:30:01;117.00;;;72.70;;
22610;SDS011;11472;45.494;12.142;2023-02-15T05:31:06;113.40;;;69.20;;
22610;SDS011;11472;45.494;12.142;2023-02-15T05:32:02;113.40;;;69.20;;
22610;SDS011;11472;45.494;12.142;2023-02-15T05:33:00;113.40;;;69.20;;
22610;SDS011;11472;45.494;12.142;2023-02-15T05:34:00;113.40;;;69.20;;
22610;SDS011;11472;45.494;12.142;2023-02-15T05:35:00;113.40;;;69.20;;
22610;SDS011;11472;45.494;12.142;2023-02-15T05:36:03;113.40;;;69.20;;
22610;SDS011;11472;45.494;12.142;2023-02-15T05:37:00;113.40;;;69.20;;
22610;SDS011;11472;45.494;12.142;2023-02-15T05:38:00;113.40;;;69.20;;
22610;SDS011;11472;45.494;12.142;2023-02-15T05:39:00;113.40;;;69.20;;
22610;SDS011;11472;45.494;12.142;2023-02-15T05:40:00;113.40;;;69.20;;
22610;SDS011;11472;45.494;12.142;2023-02-15T05:41:00;113.40;;;69.20;;
22610;SDS011;11472;45.494;12.142;2023-02-15T05:42:00;113.40;;;69.20;;
22610;SDS011;11472;45.494;12.142;2023-02-15T05:43:00;113.40;;;69.20;;
22610;SDS011;11472;45.494;12.142;2023-02-15T05:44:00;113.40;;;69.20;;
22610;SDS011;11472;45.494;12.142;2023-02-15T05:45:00;113.40;;;69.20;;
22610;SDS011;11472;45.494;12.142;2023-02-15T05:46:01;111.10;;;67.30;;
22610;SDS011;11472;45.494;12.142;2023-02-15T05:47:02;111.10;;;67.30;;
22610;SDS011;11472;45.494;12.142;2023-02-15T05:48:00;111.10;;;67.30;;
22610;SDS011;11472;45.494;12.142;2023-02-15T05:49:01;111.10;;;67.30;;
22610;SDS011;11472;45.494;12.142;2023-02-15T05:50:00;111.10;;;67.30;;
22610;SDS011;11472;45.494;12.142;2023-02-15T05:51:02;111.10;;;67.30;;
22610;SDS011;11472;45.494;12.142;2023-02-15T05:52:00;111.10;;;67.30;;
22610;SDS011;11472;45.494;12.142;2023-02-15T05:53:00;111.10;;;67.30;;
22610;SDS011;11472;45.494;12.142;2023-02-15T05:54:00;111.10;;;67.30;;
22610;SDS011;11472;45.494;12.142;2023-02-15T05:55:02;111.10;;;67.30;;
22610;SDS011;11472;45.494;12.142;2023-02-15T05:56:02;111.10;;;67.30;;
22610;SDS011;11472;45.494;12.142;2023-02-15T05:57:00;111.10;;;67.30;;
22610;SDS011;11472;45.494;12.142;2023-02-15T05:58:00;111.10;;;67.30;;
22610;SDS011;11472;45.494;12.142;2023-02-15T05:59:00;111.10;;;67.30;;
22610;SDS011;11472;45.494;12.142;2023-02-15T06:00:01;111.10;;;67.30;;
22610;SDS011;11472;45.494;12.142;2023-02-15T06:01:08;104.40;;;60.30;;
22610;SDS011;11472;45.494;12.142;2023-02-15T06:02:00;104.40;;;60.30;;
22610;SDS011;11472;45.494;12.142;2023-02-15T06:03:00;104.40;;;60.30;;
22610;SDS011;11472;45.494;12.142;2023-02-15T06:04:00;104.40;;;60.30;;
22610;SDS011;11472;45.494;12.142;2023-02-15T06:05:00;104.40;;;60.30;;
22610;SDS011;11472;45.494;12.142;2023-02-15T06:06:01;104.40;;;60.30;;
22610;SDS011;11472;45.494;12.142;2023-02-15T06:07:00;104.40;;;60.30;;
22610;SDS011;11472;45.494;12.142;2023-02-15T06:08:00;104.40;;;60.30;;
22610;SDS011;11472;45.494;12.142;2023-02-15T06:09:00;104.40;;;60.30;;
22610;SDS011;11472;45.494;12.142;2023-02-15T06:10:00;104.40;;;60.30;;
22610;SDS011;11472;45.494;12.142;2023-02-15T06:11:00;104.40;;;60.30;;
22610;SDS011;11472;45.494;12.142;2023-02-15T06:12:00;104.40;;;60.30;;
22610;SDS011;11472;45.494;12.142;2023-02-15T06:13:00;104.40;;;60.30;;